Harbor Springs, MI

8:38 PM EST on January 20, 2017 (GMT -0500)
Harbor Springs

Weather History for KMGN - September, 2013

Change the Weather History Date:

Monday, September 16, 2013

  Actual Average (KPLN) Record (KPLN)
Temperature  
Mean Temperature 50 °F -  
Max Temperature 57 °F 67 °F 89 °F (1955)
Min Temperature 42 °F 42 °F 26 °F (1964)
Degree Days  
Heating Degree Days 16    
Moisture  
Dew Point 40 °F    
Average Humidity 72    
Maximum Humidity 90    
Minimum Humidity 51    
Precipitation  
Precipitation 0.00 in - - ()
Sea Level Pressure  
Sea Level Pressure 30.36 in    
Wind  
Wind Speed 6 mph (NNE)    
Max Wind Speed 10 mph    
Max Gust Speed 16 mph    
Visibility 10 miles    
Events      
Averages and records for this station are not official NWS values.
T = Trace of Precipitation, MM = Missing Value Source: NWS Daily Summary

Daily Weather History Graph

Daily Weather History Graph

Search for Another Location

Airport or City:

Trip Planner

Search our weather history database for the weather conditions in past years. The results will help you decide how hot, cold, wet, or windy it might be!

Date:

Astronomy

Sep. 16, 2013 Rise Set
Actual Time 7:19 AM EDT 7:48 PM EDT
Civil Twilight 6:49 AM EDT 8:17 PM EDT
Nautical Twilight 6:14 AM EDT 8:52 PM EDT
Astronomical Twilight 5:38 AM EDT 9:29 PM EDT
Moon 6:02 PM EDT (9/16) 3:57 AM EDT (9/16)
Length of Visible Light 13h 28m
Length of Day
12h 28m
Waxing Gibbous, 90% of the Moon is Illuminated
Sep 16
Waxing Gibbous
Sep 19
Full
Sep 26
Last Quarter
Oct 4
New
Oct 11
First Quarter

Hourly Weather History & Observations

Time (EDT) Temp. Windchill Dew Point Humidity Pressure Visibility Wind Dir Wind Speed Gust Speed Precip Events Conditions
12:15 AM 50.0 °F - 46.2 °F 87% 30.21 in 10.0 mi NNE 5.8 mph - N/A   Overcast
12:34 AM 50.0 °F - 46.0 °F 86% 30.22 in 10.0 mi NNE 9.2 mph - N/A   Overcast
12:55 AM 50.0 °F - 47.3 °F 90% 30.23 in 5.0 mi North 9.2 mph - N/A   Drizzle
1:15 AM 50.0 °F - 47.3 °F 90% 30.24 in 7.0 mi North 6.9 mph - N/A   Overcast
1:34 AM 50.0 °F - 47.1 °F 90% 30.24 in 10.0 mi North 6.9 mph - N/A   Overcast
1:55 AM 50.0 °F - 46.6 °F 88% 30.24 in 10.0 mi North 3.5 mph - N/A   Overcast
2:15 AM 50.0 °F - 46.4 °F 87% 30.25 in 10.0 mi NNE 5.8 mph - N/A   Overcast
2:34 AM 47.7 °F - 43.5 °F 86% 30.26 in 10.0 mi NNE 6.9 mph - N/A   Overcast
2:55 AM 47.7 °F - 43.2 °F 84% 30.26 in 10.0 mi NNE 5.8 mph - N/A   Overcast
3:15 AM 47.3 °F - 42.1 °F 82% 30.26 in 10.0 mi NNE 9.2 mph - N/A   Overcast
3:34 AM 45.7 °F 41.0 °F 40.6 °F 83% 30.27 in 10.0 mi North 9.2 mph - N/A   Overcast
3:55 AM 44.8 °F 40.4 °F 39.7 °F 82% 30.28 in 10.0 mi North 8.1 mph - N/A   Overcast
4:15 AM 43.7 °F 38.6 °F 38.7 °F 82% 30.29 in 10.0 mi NNE 9.2 mph - N/A   Overcast
4:34 AM 43.7 °F 38.1 °F 37.4 °F 78% 30.29 in 10.0 mi NNE 10.4 mph - N/A   Overcast
4:55 AM 43.5 °F 38.9 °F 37.6 °F 80% 30.31 in 10.0 mi NNE 8.1 mph - N/A   Overcast
5:15 AM 43.7 °F 40.3 °F 37.8 °F 80% 30.31 in 10.0 mi NNE 5.8 mph - N/A   Overcast
5:34 AM 43.7 °F 41.1 °F 37.6 °F 79% 30.32 in 10.0 mi North 4.6 mph - N/A   Overcast
5:55 AM 43.7 °F 41.1 °F 37.6 °F 79% 30.32 in 10.0 mi North 4.6 mph - N/A   Overcast
6:15 AM 43.7 °F 40.3 °F 37.8 °F 80% 30.33 in 10.0 mi NNE 5.8 mph - N/A   Overcast
6:34 AM 43.7 °F 40.3 °F 37.4 °F 78% 30.34 in 10.0 mi North 5.8 mph - N/A   Overcast
6:55 AM 43.7 °F 41.1 °F 37.4 °F 78% 30.34 in 10.0 mi North 4.6 mph - N/A   Overcast
7:15 AM 43.0 °F 39.5 °F 36.9 °F 79% 30.35 in 10.0 mi North 5.8 mph - N/A   Overcast
7:34 AM 42.8 °F 40.1 °F 36.9 °F 80% 30.36 in 10.0 mi North 4.6 mph - N/A   Overcast
7:55 AM 42.8 °F 39.3 °F 36.7 °F 79% 30.37 in 10.0 mi North 5.8 mph - N/A   Overcast
8:15 AM 42.8 °F 38.6 °F 36.9 °F 80% 30.38 in 10.0 mi North 6.9 mph - N/A   Overcast
8:34 AM 43.2 °F 39.0 °F 37.2 °F 80% 30.38 in 10.0 mi North 6.9 mph - N/A   Overcast
8:55 AM 43.9 °F 39.9 °F 37.4 °F 78% 30.39 in 10.0 mi North 6.9 mph - N/A   Mostly Cloudy
9:15 AM 45.0 °F 41.2 °F 37.8 °F 76% 30.39 in 10.0 mi North 6.9 mph - N/A   Mostly Cloudy
9:34 AM 47.3 °F - 38.8 °F 72% 30.40 in 10.0 mi NE 8.1 mph - N/A   Overcast
9:55 AM 50.0 °F - 39.7 °F 68% 30.41 in 10.0 mi NNE 6.9 mph - N/A   Mostly Cloudy
10:15 AM 50.0 °F - 39.7 °F 68% 30.41 in 10.0 mi NE 10.4 mph 16.1 mph N/A   Scattered Clouds
10:34 AM 50.0 °F - 39.4 °F 67% 30.42 in 10.0 mi NNE 8.1 mph - N/A   Scattered Clouds
10:51 AM 50.0 °F - 38.8 °F 66% 30.42 in 10.0 mi NE 4.6 mph - N/A   Clear
11:14 AM 50.0 °F - 38.7 °F 65% 30.42 in 10.0 mi ENE 8.1 mph - N/A   Scattered Clouds
11:35 AM 50.0 °F - 37.4 °F 62% 30.42 in 10.0 mi Calm Calm - N/A   Scattered Clouds
11:54 AM 52.3 °F - 39.4 °F 61% 30.42 in 10.0 mi ENE 8.1 mph - N/A   Clear
12:14 PM 52.7 °F - 39.2 °F 60% 30.42 in 10.0 mi ENE 8.1 mph - N/A   Clear
12:35 PM 54.1 °F - 39.6 °F 58% 30.42 in 10.0 mi ENE 5.8 mph - N/A   Clear
12:54 PM 54.9 °F - 39.4 °F 56% 30.41 in 10.0 mi NE 10.4 mph - N/A   Clear
1:14 PM 54.9 °F - 37.0 °F 51% 30.41 in 10.0 mi North 3.5 mph - N/A   Clear
1:35 PM 55.0 °F - 37.6 °F 52% 30.41 in 10.0 mi ENE 4.6 mph - N/A   Clear
1:54 PM 56.3 °F - 39.0 °F 52% 30.41 in 10.0 mi Calm Calm - N/A   Clear
2:14 PM 56.1 °F - 43.3 °F 62% 30.41 in 10.0 mi WSW 5.8 mph - N/A   Clear
2:35 PM 54.9 °F - 42.3 °F 63% 30.41 in 10.0 mi WSW 6.9 mph - N/A   Clear
2:54 PM 54.9 °F - 43.5 °F 66% 30.41 in 10.0 mi WSW 5.8 mph - N/A   Clear
3:14 PM 55.4 °F - 43.5 °F 64% 30.40 in 10.0 mi SW 5.8 mph - N/A   Clear
3:35 PM 57.4 °F - 44.6 °F 62% 30.39 in 10.0 mi SW 6.9 mph - N/A   Clear
3:54 PM 57.0 °F - 44.4 °F 63% 30.39 in 10.0 mi SW 5.8 mph - N/A   Clear
4:15 PM 57.4 °F - 44.1 °F 61% 30.39 in 10.0 mi SW 6.9 mph - N/A   Clear
4:35 PM 57.0 °F - 43.9 °F 61% 30.39 in 10.0 mi WSW 6.9 mph - N/A   Clear
4:54 PM 57.4 °F - 43.7 °F 60% 30.38 in 10.0 mi WSW 4.6 mph - N/A   Clear
5:15 PM 57.4 °F - 43.5 °F 60% 30.38 in 10.0 mi SW 3.5 mph - N/A   Clear
5:35 PM 57.4 °F - 43.2 °F 59% 30.38 in 10.0 mi Calm Calm - N/A   Clear
5:54 PM 57.4 °F - 43.0 °F 59% 30.39 in 10.0 mi Calm Calm - N/A   Clear
6:15 PM 57.4 °F - 40.1 °F 53% 30.39 in 10.0 mi East 8.1 mph - N/A   Clear
6:35 PM 55.8 °F - 39.0 °F 53% 30.39 in 10.0 mi East 6.9 mph - N/A   Clear
6:54 PM 54.9 °F - 38.7 °F 54% 30.39 in 10.0 mi East 5.8 mph - N/A   Clear
7:15 PM 54.9 °F - 39.9 °F 57% 30.39 in 10.0 mi East 5.8 mph - N/A   Clear
7:35 PM 53.2 °F - 38.8 °F 58% 30.38 in 10.0 mi East 5.8 mph - N/A   Clear
7:54 PM 50.5 °F - 39.4 °F 66% 30.38 in 10.0 mi ENE 3.5 mph - N/A   Clear
8:15 PM 50.0 °F - 41.9 °F 74% 30.38 in 10.0 mi NE 3.5 mph - N/A   Clear
8:35 PM 50.0 °F - 41.7 °F 73% 30.38 in 10.0 mi NE 4.6 mph - N/A   Clear
8:54 PM 47.7 °F - 40.6 °F 77% 30.39 in 10.0 mi ENE 3.5 mph - N/A   Clear
9:15 PM 47.3 °F - 40.1 °F 76% 30.39 in 10.0 mi NE 5.8 mph - N/A   Clear
9:34 PM 45.7 °F 42.7 °F 39.7 °F 80% 30.39 in 10.0 mi ENE 5.8 mph - N/A   Clear
9:55 PM 45.1 °F 42.0 °F 39.0 °F 79% 30.39 in 10.0 mi ENE 5.8 mph - N/A   Clear
10:15 PM 44.8 °F 41.6 °F 39.2 °F 81% 30.39 in 10.0 mi NE 5.8 mph - N/A   Clear
10:34 PM 44.8 °F 41.6 °F 39.6 °F 82% 30.39 in 10.0 mi NE 5.8 mph - N/A   Clear
10:55 PM 43.9 °F 40.5 °F 38.8 °F 82% 30.39 in 10.0 mi NE 5.8 mph - N/A   Clear
11:15 PM 43.7 °F 39.7 °F 38.3 °F 81% 30.40 in 10.0 mi NE 6.9 mph - N/A   Clear
11:34 PM 43.0 °F 39.5 °F 37.4 °F 81% 30.40 in 10.0 mi ENE 5.8 mph - N/A   Clear
11:55 PM 42.3 °F 38.6 °F 36.5 °F 80% 30.40 in 10.0 mi ENE 5.8 mph - N/A   Clear